• Join FlightAware (Why Join?)
  • Login
  • US Flag 
09:01AM EDT


 

Airport Tracker/Info


-or-


 

Live Flight TrackerFlight Track Log ✈ GRY3 ✈ 13-Aug-2013 ✈ KHPN - KALB

Flight Track Log - Related Links

Times and Time Zones

All times are in EDT time to prevent confusion due to time zone crossing. See the GRY3 flight status page for this flight to view local times or setup timezone preferences in your user account.

Time Position Orientation Groundspeed Altitude Reporting Facility
EDT Latitude Longitude Course Direction KTS MPH feet Rate Location/Type
09:55PM 41.2128 -73.5881 North 193 222 7,100  Level Boston Center
09:56PM 41.2650 -73.5833 North 199 229 8,400 900 Climbing Boston Center
09:57PM 41.3281 -73.5431 25° Northeast 209 241 9,000 300 Climbing Boston Center
09:58PM 41.3903 -73.5550 352° North 230 265 9,000  Level Boston Center
09:59PM 41.4653 -73.5564 359° North 246 283 9,000  Level Boston Center
10:00PM 41.5278 -73.5714 350° North 252 290 9,000  Level Boston Center
10:01PM 41.6047 -73.5867 352° North 247 284 9,000  Level Boston Center
10:02PM 41.6650 -73.5961 353° North 247 284 9,000  Level Boston Center
10:03PM 41.7400 -73.6114 351° North 247 284 9,000  Level Boston Center
10:04PM 41.7856 -73.6206 351° North 241 277 9,000  Level Boston Center
10:05PM 41.8503 -73.6331 352° North 238 274 9,000  Level Boston Center
10:05PM 41.8856 -73.6392 353° North 235 270 9,000  Level Boston Center
10:06PM 41.9519 -73.6544 350° North 233 268 9,000  Level Boston Center
10:07PM 41.9978 -73.6664 349° North 235 270 9,000  Level Boston Center
10:08PM 42.0561 -73.6789 351° North 235 270 9,000  Level Boston Center
10:09PM 42.1203 -73.6969 348° North 235 270 9,000 -180 Level Boston Center
10:10PM 42.1911 -73.7094 353° North 235 270 8,700 -900 Descending Boston Center
10:11PM 42.2514 -73.7247 349° North 243 280 7,300 -1,560 Descending Boston Center
10:12PM 42.3219 -73.7431 349° North 208 239 5,500 -1,440 Descending Boston Center
10:13PM 42.3719 -73.7525 352° North 216 249 4,400 -1,140 Descending Boston Center
10:14PM 42.4386 -73.7681 350° North 222 255 3,300 -720 Descending Boston Center
10:15PM 42.4883 -73.7803 350° North 216 249 3,100 -120 Descending Boston Center
10:16PM 42.5467 -73.7956 349° North 198 228 3,100  Level Boston Center
10:17PM 42.5925 -73.7967 359° North 192 221 3,100 -360 Level Boston Center
10:18PM 42.6297 -73.8003 356° North 169 194 2,400 -720 Descending Boston Center
10:19PM 42.6714 -73.8039 356° North 116 133 1,600 -660 Descending Boston Center
10:20PM 42.7111 -73.8078 356° North 125 144 900 -600 Descending Boston Center
10:22PM 42.7333 -73.8000 353° North  Level FlightAware Approximate
10:29PM 42.7491 -73.8020 353° North  Level Estimated
10:30PM 42.7491 -73.8020 353° North  Level Estimated